sensor_id;sensor_type;location;lat;lon;timestamp;P1;durP1;ratioP1;P2;durP2;ratioP2
50417;SDS011;36346;48.280;14.292;2022-10-26T00:01:20;7.55;;;7.55;;
50417;SDS011;36346;48.280;14.292;2022-10-26T00:03:49;7.60;;;7.60;;
50417;SDS011;36346;48.280;14.292;2022-10-26T00:06:18;7.25;;;7.25;;
50417;SDS011;36346;48.280;14.292;2022-10-26T00:08:48;7.19;;;7.19;;
50417;SDS011;36346;48.280;14.292;2022-10-26T00:11:16;7.27;;;7.27;;
50417;SDS011;36346;48.280;14.292;2022-10-26T00:13:45;6.76;;;6.76;;
50417;SDS011;36346;48.280;14.292;2022-10-26T00:18:42;7.88;;;7.86;;
50417;SDS011;36346;48.280;14.292;2022-10-26T00:21:10;8.25;;;8.24;;
50417;SDS011;36346;48.280;14.292;2022-10-26T00:23:38;9.80;;;9.80;;
50417;SDS011;36346;48.280;14.292;2022-10-26T00:26:07;8.19;;;8.19;;
50417;SDS011;36346;48.280;14.292;2022-10-26T00:28:35;7.99;;;7.99;;
50417;SDS011;36346;48.280;14.292;2022-10-26T00:31:10;7.53;;;7.53;;
50417;SDS011;36346;48.280;14.292;2022-10-26T00:33:39;7.75;;;7.75;;
50417;SDS011;36346;48.280;14.292;2022-10-26T00:36:08;8.07;;;8.07;;
50417;SDS011;36346;48.280;14.292;2022-10-26T00:38:37;7.62;;;7.62;;
50417;SDS011;36346;48.280;14.292;2022-10-26T00:41:05;7.59;;;7.58;;
50417;SDS011;36346;48.280;14.292;2022-10-26T00:43:33;7.56;;;7.55;;
50417;SDS011;36346;48.280;14.292;2022-10-26T00:46:04;7.65;;;7.64;;
50417;SDS011;36346;48.280;14.292;2022-10-26T00:48:43;7.51;;;7.51;;
50417;SDS011;36346;48.280;14.292;2022-10-26T00:51:16;6.90;;;6.90;;
50417;SDS011;36346;48.280;14.292;2022-10-26T00:53:53;7.08;;;7.07;;
50417;SDS011;36346;48.280;14.292;2022-10-26T00:56:22;6.81;;;6.81;;
50417;SDS011;36346;48.280;14.292;2022-10-26T00:58:51;6.95;;;6.91;;
50417;SDS011;36346;48.280;14.292;2022-10-26T01:01:19;7.48;;;7.45;;
50417;SDS011;36346;48.280;14.292;2022-10-26T01:03:47;7.42;;;7.41;;
50417;SDS011;36346;48.280;14.292;2022-10-26T01:06:16;6.92;;;6.88;;
50417;SDS011;36346;48.280;14.292;2022-10-26T01:08:44;7.09;;;7.06;;
50417;SDS011;36346;48.280;14.292;2022-10-26T01:11:13;7.45;;;7.44;;
50417;SDS011;36346;48.280;14.292;2022-10-26T01:13:41;7.11;;;7.11;;
50417;SDS011;36346;48.280;14.292;2022-10-26T01:21:56;7.12;;;7.10;;
50417;SDS011;36346;48.280;14.292;2022-10-26T01:30:09;7.14;;;7.14;;
50417;SDS011;36346;48.280;14.292;2022-10-26T01:44:15;6.36;;;6.35;;
50417;SDS011;36346;48.280;14.292;2022-10-26T01:46:48;6.20;;;6.19;;
50417;SDS011;36346;48.280;14.292;2022-10-26T01:49:27;6.31;;;6.31;;
50417;SDS011;36346;48.280;14.292;2022-10-26T01:51:59;6.04;;;6.04;;
50417;SDS011;36346;48.280;14.292;2022-10-26T01:54:27;5.96;;;5.96;;
50417;SDS011;36346;48.280;14.292;2022-10-26T01:56:59;6.13;;;6.13;;
50417;SDS011;36346;48.280;14.292;2022-10-26T01:59:48;5.90;;;5.90;;
50417;SDS011;36346;48.280;14.292;2022-10-26T02:02:42;6.03;;;6.01;;
50417;SDS011;36346;48.280;14.292;2022-10-26T02:05:35;5.99;;;5.99;;
50417;SDS011;36346;48.280;14.292;2022-10-26T02:08:40;5.73;;;5.73;;
50417;SDS011;36346;48.280;14.292;2022-10-26T02:11:18;5.50;;;5.50;;
50417;SDS011;36346;48.280;14.292;2022-10-26T02:14:49;5.35;;;5.35;;
50417;SDS011;36346;48.280;14.292;2022-10-26T02:17:31;5.81;;;5.81;;
50417;SDS011;36346;48.280;14.292;2022-10-26T02:20:03;5.49;;;5.49;;
50417;SDS011;36346;48.280;14.292;2022-10-26T02:22:36;5.52;;;5.52;;
50417;SDS011;36346;48.280;14.292;2022-10-26T02:25:10;5.69;;;5.69;;
50417;SDS011;36346;48.280;14.292;2022-10-26T02:28:08;5.84;;;5.84;;
50417;SDS011;36346;48.280;14.292;2022-10-26T02:30:39;5.58;;;5.57;;
50417;SDS011;36346;48.280;14.292;2022-10-26T02:33:09;5.35;;;5.34;;
50417;SDS011;36346;48.280;14.292;2022-10-26T02:35:40;5.07;;;5.07;;
50417;SDS011;36346;48.280;14.292;2022-10-26T02:38:13;5.79;;;5.79;;
50417;SDS011;36346;48.280;14.292;2022-10-26T02:40:46;5.90;;;5.90;;
50417;SDS011;36346;48.280;14.292;2022-10-26T02:43:17;5.89;;;5.89;;
50417;SDS011;36346;48.280;14.292;2022-10-26T02:45:56;5.94;;;5.92;;
50417;SDS011;36346;48.280;14.292;2022-10-26T02:48:38;5.94;;;5.93;;
50417;SDS011;36346;48.280;14.292;2022-10-26T02:57:23;5.79;;;5.78;;
50417;SDS011;36346;48.280;14.292;2022-10-26T02:59:46;5.80;;;5.80;;
50417;SDS011;36346;48.280;14.292;2022-10-26T03:02:18;5.93;;;5.93;;
50417;SDS011;36346;48.280;14.292;2022-10-26T03:04:48;6.09;;;6.09;;
50417;SDS011;36346;48.280;14.292;2022-10-26T03:07:20;6.26;;;6.26;;
50417;SDS011;36346;48.280;14.292;2022-10-26T03:09:49;6.01;;;6.00;;
50417;SDS011;36346;48.280;14.292;2022-10-26T03:12:17;6.16;;;6.16;;
50417;SDS011;36346;48.280;14.292;2022-10-26T03:14:45;6.33;;;6.33;;
50417;SDS011;36346;48.280;14.292;2022-10-26T03:17:13;6.15;;;6.15;;
50417;SDS011;36346;48.280;14.292;2022-10-26T03:19:40;6.50;;;6.50;;
50417;SDS011;36346;48.280;14.292;2022-10-26T03:22:08;5.97;;;5.96;;
50417;SDS011;36346;48.280;14.292;2022-10-26T03:24:36;5.70;;;5.70;;
50417;SDS011;36346;48.280;14.292;2022-10-26T03:27:04;5.87;;;5.87;;
50417;SDS011;36346;48.280;14.292;2022-10-26T03:29:32;5.70;;;5.70;;
50417;SDS011;36346;48.280;14.292;2022-10-26T03:32:00;5.47;;;5.47;;
50417;SDS011;36346;48.280;14.292;2022-10-26T03:34:28;5.41;;;5.41;;
50417;SDS011;36346;48.280;14.292;2022-10-26T03:36:56;5.81;;;5.81;;
50417;SDS011;36346;48.280;14.292;2022-10-26T03:39:24;5.53;;;5.53;;
50417;SDS011;36346;48.280;14.292;2022-10-26T03:41:53;5.74;;;5.74;;
50417;SDS011;36346;48.280;14.292;2022-10-26T03:44:22;5.92;;;5.92;;
50417;SDS011;36346;48.280;14.292;2022-10-26T03:46:50;5.87;;;5.87;;
50417;SDS011;36346;48.280;14.292;2022-10-26T03:49:18;5.58;;;5.58;;
50417;SDS011;36346;48.280;14.292;2022-10-26T03:51:46;5.45;;;5.45;;
50417;SDS011;36346;48.280;14.292;2022-10-26T03:54:14;5.89;;;5.89;;
50417;SDS011;36346;48.280;14.292;2022-10-26T03:56:42;5.58;;;5.58;;
50417;SDS011;36346;48.280;14.292;2022-10-26T03:59:10;5.68;;;5.68;;
50417;SDS011;36346;48.280;14.292;2022-10-26T04:01:38;5.60;;;5.60;;
50417;SDS011;36346;48.280;14.292;2022-10-26T04:04:06;5.52;;;5.52;;
50417;SDS011;36346;48.280;14.292;2022-10-26T04:06:34;5.41;;;5.41;;
50417;SDS011;36346;48.280;14.292;2022-10-26T04:09:03;5.31;;;5.31;;
50417;SDS011;36346;48.280;14.292;2022-10-26T04:11:30;5.60;;;5.60;;
50417;SDS011;36346;48.280;14.292;2022-10-26T04:13:58;5.84;;;5.84;;
50417;SDS011;36346;48.280;14.292;2022-10-26T04:16:27;5.55;;;5.55;;
50417;SDS011;36346;48.280;14.292;2022-10-26T04:18:59;5.44;;;5.44;;
50417;SDS011;36346;48.280;14.292;2022-10-26T04:21:27;5.71;;;5.71;;
50417;SDS011;36346;48.280;14.292;2022-10-26T04:23:57;6.02;;;6.01;;
50417;SDS011;36346;48.280;14.292;2022-10-26T04:26:25;5.74;;;5.74;;
50417;SDS011;36346;48.280;14.292;2022-10-26T04:28:52;5.90;;;5.90;;
50417;SDS011;36346;48.280;14.292;2022-10-26T04:31:21;5.73;;;5.73;;
50417;SDS011;36346;48.280;14.292;2022-10-26T04:33:49;5.75;;;5.75;;
50417;SDS011;36346;48.280;14.292;2022-10-26T04:36:16;5.49;;;5.49;;
50417;SDS011;36346;48.280;14.292;2022-10-26T04:38:46;5.65;;;5.65;;
50417;SDS011;36346;48.280;14.292;2022-10-26T04:41:15;5.90;;;5.90;;
50417;SDS011;36346;48.280;14.292;2022-10-26T04:43:43;6.37;;;6.37;;
50417;SDS011;36346;48.280;14.292;2022-10-26T04:46:11;5.79;;;5.79;;
50417;SDS011;36346;48.280;14.292;2022-10-26T04:48:43;5.75;;;5.75;;
50417;SDS011;36346;48.280;14.292;2022-10-26T04:51:11;5.80;;;5.80;;
50417;SDS011;36346;48.280;14.292;2022-10-26T04:53:39;6.05;;;6.04;;
50417;SDS011;36346;48.280;14.292;2022-10-26T04:56:07;6.21;;;6.21;;
50417;SDS011;36346;48.280;14.292;2022-10-26T04:58:35;6.09;;;6.09;;
50417;SDS011;36346;48.280;14.292;2022-10-26T05:01:03;6.17;;;6.17;;
50417;SDS011;36346;48.280;14.292;2022-10-26T05:03:32;5.63;;;5.63;;
50417;SDS011;36346;48.280;14.292;2022-10-26T05:06:00;6.33;;;6.33;;
50417;SDS011;36346;48.280;14.292;2022-10-26T05:08:28;6.45;;;6.45;;
50417;SDS011;36346;48.280;14.292;2022-10-26T05:10:58;6.60;;;6.60;;
50417;SDS011;36346;48.280;14.292;2022-10-26T05:13:26;6.42;;;6.42;;
50417;SDS011;36346;48.280;14.292;2022-10-26T05:15:54;6.29;;;6.29;;
50417;SDS011;36346;48.280;14.292;2022-10-26T05:18:22;6.56;;;6.56;;
50417;SDS011;36346;48.280;14.292;2022-10-26T05:20:51;6.61;;;6.61;;
50417;SDS011;36346;48.280;14.292;2022-10-26T05:23:20;6.28;;;6.28;;
50417;SDS011;36346;48.280;14.292;2022-10-26T05:25:49;6.55;;;6.55;;
50417;SDS011;36346;48.280;14.292;2022-10-26T05:28:17;7.09;;;7.09;;
50417;SDS011;36346;48.280;14.292;2022-10-26T05:30:45;8.04;;;8.04;;
50417;SDS011;36346;48.280;14.292;2022-10-26T05:33:13;8.45;;;8.45;;
50417;SDS011;36346;48.280;14.292;2022-10-26T05:35:41;8.22;;;8.22;;
50417;SDS011;36346;48.280;14.292;2022-10-26T05:38:13;8.81;;;8.81;;
50417;SDS011;36346;48.280;14.292;2022-10-26T05:40:46;8.54;;;8.54;;
50417;SDS011;36346;48.280;14.292;2022-10-26T05:43:15;9.20;;;9.20;;
50417;SDS011;36346;48.280;14.292;2022-10-26T05:45:43;9.09;;;9.09;;
50417;SDS011;36346;48.280;14.292;2022-10-26T05:48:12;8.67;;;8.67;;
50417;SDS011;36346;48.280;14.292;2022-10-26T05:50:40;8.93;;;8.93;;
50417;SDS011;36346;48.280;14.292;2022-10-26T05:53:08;8.50;;;8.50;;
50417;SDS011;36346;48.280;14.292;2022-10-26T05:55:36;8.23;;;8.23;;
50417;SDS011;36346;48.280;14.292;2022-10-26T05:58:08;8.20;;;8.20;;
50417;SDS011;36346;48.280;14.292;2022-10-26T06:06:20;8.63;;;8.63;;
50417;SDS011;36346;48.280;14.292;2022-10-26T06:08:49;8.31;;;8.31;;
50417;SDS011;36346;48.280;14.292;2022-10-26T06:11:17;7.83;;;7.83;;
50417;SDS011;36346;48.280;14.292;2022-10-26T06:13:45;8.03;;;8.03;;
50417;SDS011;36346;48.280;14.292;2022-10-26T06:21:47;11.09;;;11.08;;
50417;SDS011;36346;48.280;14.292;2022-10-26T06:27:45;9.66;;;9.66;;
50417;SDS011;36346;48.280;14.292;2022-10-26T06:30:18;9.79;;;9.79;;
50417;SDS011;36346;48.280;14.292;2022-10-26T06:32:49;10.65;;;10.65;;
50417;SDS011;36346;48.280;14.292;2022-10-26T06:38:08;9.89;;;9.89;;
50417;SDS011;36346;48.280;14.292;2022-10-26T06:40:41;10.70;;;10.70;;
50417;SDS011;36346;48.280;14.292;2022-10-26T06:43:12;9.74;;;9.74;;
50417;SDS011;36346;48.280;14.292;2022-10-26T06:45:59;17.06;;;17.05;;
50417;SDS011;36346;48.280;14.292;2022-10-26T06:51:29;12.25;;;12.24;;
50417;SDS011;36346;48.280;14.292;2022-10-26T06:57:03;15.39;;;15.39;;
50417;SDS011;36346;48.280;14.292;2022-10-26T06:59:34;14.95;;;14.94;;
50417;SDS011;36346;48.280;14.292;2022-10-26T07:02:07;14.09;;;14.09;;
50417;SDS011;36346;48.280;14.292;2022-10-26T07:04:36;11.81;;;11.81;;
50417;SDS011;36346;48.280;14.292;2022-10-26T07:07:04;11.05;;;11.05;;
50417;SDS011;36346;48.280;14.292;2022-10-26T07:09:32;15.84;;;15.78;;
50417;SDS011;36346;48.280;14.292;2022-10-26T07:12:00;21.34;;;21.14;;
50417;SDS011;36346;48.280;14.292;2022-10-26T07:14:28;18.88;;;18.85;;
50417;SDS011;36346;48.280;14.292;2022-10-26T07:16:57;18.62;;;18.58;;
50417;SDS011;36346;48.280;14.292;2022-10-26T07:19:25;18.19;;;18.16;;
50417;SDS011;36346;48.280;14.292;2022-10-26T07:21:54;18.28;;;18.23;;
50417;SDS011;36346;48.280;14.292;2022-10-26T07:24:27;18.39;;;18.27;;
50417;SDS011;36346;48.280;14.292;2022-10-26T07:26:55;18.04;;;17.93;;
50417;SDS011;36346;48.280;14.292;2022-10-26T07:29:25;17.75;;;17.71;;
50417;SDS011;36346;48.280;14.292;2022-10-26T07:31:53;13.58;;;13.58;;
50417;SDS011;36346;48.280;14.292;2022-10-26T07:34:21;13.23;;;13.18;;
50417;SDS011;36346;48.280;14.292;2022-10-26T07:36:49;13.48;;;13.41;;
50417;SDS011;36346;48.280;14.292;2022-10-26T07:39:18;13.86;;;13.80;;
50417;SDS011;36346;48.280;14.292;2022-10-26T07:41:46;15.18;;;15.09;;
50417;SDS011;36346;48.280;14.292;2022-10-26T07:44:14;14.57;;;14.54;;
50417;SDS011;36346;48.280;14.292;2022-10-26T07:46:42;14.15;;;14.14;;
50417;SDS011;36346;48.280;14.292;2022-10-26T07:49:10;13.00;;;12.97;;
50417;SDS011;36346;48.280;14.292;2022-10-26T07:51:38;12.15;;;12.14;;
50417;SDS011;36346;48.280;14.292;2022-10-26T07:54:06;11.76;;;11.72;;
50417;SDS011;36346;48.280;14.292;2022-10-26T07:56:34;11.32;;;11.29;;
50417;SDS011;36346;48.280;14.292;2022-10-26T07:59:02;11.47;;;11.43;;
50417;SDS011;36346;48.280;14.292;2022-10-26T08:01:30;11.65;;;11.60;;
50417;SDS011;36346;48.280;14.292;2022-10-26T08:03:58;11.12;;;11.10;;
50417;SDS011;36346;48.280;14.292;2022-10-26T08:06:26;9.96;;;9.96;;
50417;SDS011;36346;48.280;14.292;2022-10-26T08:08:54;9.47;;;9.47;;
50417;SDS011;36346;48.280;14.292;2022-10-26T08:11:22;9.75;;;9.75;;
50417;SDS011;36346;48.280;14.292;2022-10-26T08:13:53;10.34;;;10.34;;
50417;SDS011;36346;48.280;14.292;2022-10-26T08:16:22;10.91;;;10.91;;
50417;SDS011;36346;48.280;14.292;2022-10-26T08:18:50;13.21;;;13.21;;
50417;SDS011;36346;48.280;14.292;2022-10-26T08:21:18;23.77;;;23.51;;
50417;SDS011;36346;48.280;14.292;2022-10-26T08:24:02;11.74;;;11.73;;
50417;SDS011;36346;48.280;14.292;2022-10-26T08:26:30;9.78;;;9.78;;
50417;SDS011;36346;48.280;14.292;2022-10-26T08:28:58;8.50;;;8.48;;
50417;SDS011;36346;48.280;14.292;2022-10-26T08:31:26;8.71;;;8.71;;
50417;SDS011;36346;48.280;14.292;2022-10-26T08:33:54;8.96;;;8.96;;
50417;SDS011;36346;48.280;14.292;2022-10-26T08:36:22;9.61;;;9.61;;
50417;SDS011;36346;48.280;14.292;2022-10-26T08:38:54;9.03;;;9.03;;
50417;SDS011;36346;48.280;14.292;2022-10-26T08:41:25;9.13;;;9.13;;
50417;SDS011;36346;48.280;14.292;2022-10-26T08:44:05;9.77;;;9.77;;
50417;SDS011;36346;48.280;14.292;2022-10-26T08:46:42;9.09;;;9.09;;
50417;SDS011;36346;48.280;14.292;2022-10-26T08:49:22;9.61;;;9.61;;
50417;SDS011;36346;48.280;14.292;2022-10-26T08:52:09;9.41;;;9.41;;
50417;SDS011;36346;48.280;14.292;2022-10-26T08:54:44;9.43;;;9.43;;
50417;SDS011;36346;48.280;14.292;2022-10-26T08:57:20;9.43;;;9.43;;
50417;SDS011;36346;48.280;14.292;2022-10-26T09:00:18;9.55;;;9.55;;
50417;SDS011;36346;48.280;14.292;2022-10-26T09:02:49;9.13;;;9.13;;
50417;SDS011;36346;48.280;14.292;2022-10-26T09:05:21;8.91;;;8.91;;
50417;SDS011;36346;48.280;14.292;2022-10-26T09:08:06;11.35;;;11.35;;
50417;SDS011;36346;48.280;14.292;2022-10-26T09:13:47;8.13;;;8.13;;
50417;SDS011;36346;48.280;14.292;2022-10-26T09:16:31;8.82;;;8.82;;
50417;SDS011;36346;48.280;14.292;2022-10-26T09:19:47;8.87;;;8.87;;
50417;SDS011;36346;48.280;14.292;2022-10-26T09:25:20;9.92;;;9.92;;
50417;SDS011;36346;48.280;14.292;2022-10-26T09:27:51;11.25;;;11.25;;
50417;SDS011;36346;48.280;14.292;2022-10-26T09:30:26;10.72;;;10.72;;
50417;SDS011;36346;48.280;14.292;2022-10-26T09:32:56;13.25;;;13.25;;
50417;SDS011;36346;48.280;14.292;2022-10-26T09:35:28;14.10;;;14.10;;
50417;SDS011;36346;48.280;14.292;2022-10-26T09:38:19;14.45;;;14.45;;
50417;SDS011;36346;48.280;14.292;2022-10-26T09:46:18;12.91;;;12.91;;
50417;SDS011;36346;48.280;14.292;2022-10-26T09:48:55;12.47;;;12.47;;
50417;SDS011;36346;48.280;14.292;2022-10-26T09:51:33;11.78;;;11.78;;
50417;SDS011;36346;48.280;14.292;2022-10-26T09:54:11;13.22;;;13.22;;
50417;SDS011;36346;48.280;14.292;2022-10-26T09:56:43;13.96;;;13.95;;
50417;SDS011;36346;48.280;14.292;2022-10-26T09:59:17;15.30;;;15.25;;
50417;SDS011;36346;48.280;14.292;2022-10-26T10:01:48;16.06;;;16.03;;
50417;SDS011;36346;48.280;14.292;2022-10-26T10:04:18;20.31;;;20.28;;
50417;SDS011;36346;48.280;14.292;2022-10-26T10:06:52;16.54;;;16.51;;
50417;SDS011;36346;48.280;14.292;2022-10-26T10:09:40;15.46;;;15.46;;
50417;SDS011;36346;48.280;14.292;2022-10-26T10:12:17;15.42;;;15.38;;
50417;SDS011;36346;48.280;14.292;2022-10-26T10:14:54;15.07;;;15.06;;
50417;SDS011;36346;48.280;14.292;2022-10-26T10:17:24;15.48;;;15.43;;
50417;SDS011;36346;48.280;14.292;2022-10-26T10:19:53;17.10;;;17.07;;
50417;SDS011;36346;48.280;14.292;2022-10-26T10:22:24;17.79;;;17.78;;
50417;SDS011;36346;48.280;14.292;2022-10-26T10:24:56;19.36;;;19.26;;
50417;SDS011;36346;48.280;14.292;2022-10-26T10:27:26;21.23;;;21.15;;
50417;SDS011;36346;48.280;14.292;2022-10-26T10:29:56;22.31;;;22.31;;
50417;SDS011;36346;48.280;14.292;2022-10-26T10:32:30;23.81;;;23.80;;
50417;SDS011;36346;48.280;14.292;2022-10-26T10:35:23;23.86;;;23.83;;
50417;SDS011;36346;48.280;14.292;2022-10-26T10:37:56;21.51;;;21.50;;
50417;SDS011;36346;48.280;14.292;2022-10-26T10:40:25;22.24;;;22.24;;
50417;SDS011;36346;48.280;14.292;2022-10-26T10:45:55;23.99;;;23.93;;
50417;SDS011;36346;48.280;14.292;2022-10-26T10:48:26;21.73;;;21.70;;
50417;SDS011;36346;48.280;14.292;2022-10-26T10:50:56;18.13;;;18.12;;
50417;SDS011;36346;48.280;14.292;2022-10-26T10:56:31;16.64;;;16.63;;
50417;SDS011;36346;48.280;14.292;2022-10-26T11:07:27;11.73;;;11.72;;
50417;SDS011;36346;48.280;14.292;2022-10-26T11:09:59;10.06;;;10.06;;
50417;SDS011;36346;48.280;14.292;2022-10-26T11:12:32;9.12;;;9.12;;
50417;SDS011;36346;48.280;14.292;2022-10-26T11:15:11;8.17;;;8.16;;
50417;SDS011;36346;48.280;14.292;2022-10-26T11:18:06;6.08;;;6.07;;
50417;SDS011;36346;48.280;14.292;2022-10-26T11:20:47;6.11;;;6.11;;
50417;SDS011;36346;48.280;14.292;2022-10-26T11:23:22;6.01;;;6.00;;
50417;SDS011;36346;48.280;14.292;2022-10-26T11:31:16;5.71;;;5.71;;
50417;SDS011;36346;48.280;14.292;2022-10-26T11:33:58;5.45;;;5.45;;
50417;SDS011;36346;48.280;14.292;2022-10-26T11:37:07;6.04;;;6.03;;
50417;SDS011;36346;48.280;14.292;2022-10-26T11:40:37;6.27;;;6.27;;
50417;SDS011;36346;48.280;14.292;2022-10-26T11:45:56;5.45;;;5.45;;
50417;SDS011;36346;48.280;14.292;2022-10-26T11:53:57;5.60;;;5.60;;
50417;SDS011;36346;48.280;14.292;2022-10-26T11:56:31;5.40;;;5.40;;
50417;SDS011;36346;48.280;14.292;2022-10-26T11:59:07;5.08;;;5.08;;
50417;SDS011;36346;48.280;14.292;2022-10-26T12:01:46;4.64;;;4.64;;
50417;SDS011;36346;48.280;14.292;2022-10-26T12:04:18;4.72;;;4.72;;
50417;SDS011;36346;48.280;14.292;2022-10-26T12:06:52;4.35;;;4.35;;
50417;SDS011;36346;48.280;14.292;2022-10-26T12:09:23;4.01;;;4.01;;
50417;SDS011;36346;48.280;14.292;2022-10-26T12:14:58;4.02;;;4.02;;
50417;SDS011;36346;48.280;14.292;2022-10-26T12:21:22;3.82;;;3.82;;
50417;SDS011;36346;48.280;14.292;2022-10-26T12:23:52;7.05;;;7.05;;
50417;SDS011;36346;48.280;14.292;2022-10-26T12:34:00;4.61;;;4.61;;
50417;SDS011;36346;48.280;14.292;2022-10-26T12:47:08;4.65;;;4.65;;
50417;SDS011;36346;48.280;14.292;2022-10-26T12:52:44;4.91;;;4.91;;
50417;SDS011;36346;48.280;14.292;2022-10-26T12:55:22;5.28;;;5.28;;
50417;SDS011;36346;48.280;14.292;2022-10-26T13:04:01;5.29;;;5.29;;
50417;SDS011;36346;48.280;14.292;2022-10-26T13:07:16;4.94;;;4.94;;
50417;SDS011;36346;48.280;14.292;2022-10-26T13:10:20;5.02;;;5.02;;
50417;SDS011;36346;48.280;14.292;2022-10-26T13:15:24;4.85;;;4.85;;
50417;SDS011;36346;48.280;14.292;2022-10-26T13:18:06;4.78;;;4.78;;
50417;SDS011;36346;48.280;14.292;2022-10-26T13:20:49;4.40;;;4.40;;
50417;SDS011;36346;48.280;14.292;2022-10-26T13:23:33;4.64;;;4.64;;
50417;SDS011;36346;48.280;14.292;2022-10-26T13:26:11;4.49;;;4.49;;
50417;SDS011;36346;48.280;14.292;2022-10-26T13:28:46;4.69;;;4.69;;
50417;SDS011;36346;48.280;14.292;2022-10-26T13:39:47;4.72;;;4.72;;
50417;SDS011;36346;48.280;14.292;2022-10-26T13:42:17;4.44;;;4.44;;
50417;SDS011;36346;48.280;14.292;2022-10-26T13:45:02;4.28;;;4.28;;
50417;SDS011;36346;48.280;14.292;2022-10-26T13:50:22;4.63;;;4.63;;
50417;SDS011;36346;48.280;14.292;2022-10-26T13:52:59;4.76;;;4.76;;
50417;SDS011;36346;48.280;14.292;2022-10-26T13:55:36;41.75;;;41.05;;
50417;SDS011;36346;48.280;14.292;2022-10-26T13:58:22;13.67;;;13.45;;
50417;SDS011;36346;48.280;14.292;2022-10-26T14:03:37;4.81;;;4.81;;
50417;SDS011;36346;48.280;14.292;2022-10-26T14:06:12;4.70;;;4.70;;
50417;SDS011;36346;48.280;14.292;2022-10-26T14:08:43;4.29;;;4.29;;
50417;SDS011;36346;48.280;14.292;2022-10-26T14:11:15;4.61;;;4.61;;
50417;SDS011;36346;48.280;14.292;2022-10-26T14:13:47;4.39;;;4.39;;
50417;SDS011;36346;48.280;14.292;2022-10-26T14:16:16;5.12;;;5.12;;
50417;SDS011;36346;48.280;14.292;2022-10-26T14:18:47;4.91;;;4.91;;
50417;SDS011;36346;48.280;14.292;2022-10-26T14:21:17;5.55;;;5.55;;
50417;SDS011;36346;48.280;14.292;2022-10-26T14:26:38;5.60;;;5.60;;
50417;SDS011;36346;48.280;14.292;2022-10-26T14:29:18;5.72;;;5.72;;
50417;SDS011;36346;48.280;14.292;2022-10-26T14:31:48;5.29;;;5.29;;
50417;SDS011;36346;48.280;14.292;2022-10-26T14:34:17;5.34;;;5.34;;
50417;SDS011;36346;48.280;14.292;2022-10-26T14:39:34;4.76;;;4.76;;
50417;SDS011;36346;48.280;14.292;2022-10-26T14:42:14;4.86;;;4.86;;
50417;SDS011;36346;48.280;14.292;2022-10-26T14:44:51;4.89;;;4.89;;
50417;SDS011;36346;48.280;14.292;2022-10-26T14:47:23;4.68;;;4.68;;
50417;SDS011;36346;48.280;14.292;2022-10-26T14:49:59;5.22;;;5.21;;
50417;SDS011;36346;48.280;14.292;2022-10-26T14:52:31;5.19;;;5.19;;
50417;SDS011;36346;48.280;14.292;2022-10-26T14:55:09;5.52;;;5.52;;
50417;SDS011;36346;48.280;14.292;2022-10-26T14:57:43;5.59;;;5.59;;
50417;SDS011;36346;48.280;14.292;2022-10-26T15:02:45;4.97;;;4.97;;
50417;SDS011;36346;48.280;14.292;2022-10-26T15:05:21;5.20;;;5.20;;
50417;SDS011;36346;48.280;14.292;2022-10-26T15:08:02;4.66;;;4.66;;
50417;SDS011;36346;48.280;14.292;2022-10-26T15:15:47;5.60;;;5.60;;
50417;SDS011;36346;48.280;14.292;2022-10-26T15:18:19;5.70;;;5.70;;
50417;SDS011;36346;48.280;14.292;2022-10-26T15:20:55;6.54;;;6.52;;
50417;SDS011;36346;48.280;14.292;2022-10-26T15:23:36;5.04;;;5.04;;
50417;SDS011;36346;48.280;14.292;2022-10-26T15:26:09;4.73;;;4.72;;
50417;SDS011;36346;48.280;14.292;2022-10-26T15:28:40;4.96;;;4.95;;
50417;SDS011;36346;48.280;14.292;2022-10-26T15:33:42;6.14;;;6.14;;
50417;SDS011;36346;48.280;14.292;2022-10-26T15:36:30;5.48;;;5.47;;
50417;SDS011;36346;48.280;14.292;2022-10-26T15:38:59;5.52;;;5.52;;
50417;SDS011;36346;48.280;14.292;2022-10-26T15:41:28;5.24;;;5.23;;
50417;SDS011;36346;48.280;14.292;2022-10-26T15:43:59;5.13;;;5.13;;
50417;SDS011;36346;48.280;14.292;2022-10-26T15:46:33;5.70;;;5.70;;
50417;SDS011;36346;48.280;14.292;2022-10-26T15:49:04;6.06;;;6.06;;
50417;SDS011;36346;48.280;14.292;2022-10-26T15:51:34;6.00;;;6.00;;
50417;SDS011;36346;48.280;14.292;2022-10-26T15:54:02;5.68;;;5.68;;
50417;SDS011;36346;48.280;14.292;2022-10-26T15:56:32;5.61;;;5.61;;
50417;SDS011;36346;48.280;14.292;2022-10-26T15:59:00;5.80;;;5.80;;
50417;SDS011;36346;48.280;14.292;2022-10-26T16:01:28;9.24;;;9.24;;
50417;SDS011;36346;48.280;14.292;2022-10-26T16:03:56;8.56;;;8.55;;
50417;SDS011;36346;48.280;14.292;2022-10-26T16:06:28;7.76;;;7.76;;
50417;SDS011;36346;48.280;14.292;2022-10-26T16:09:03;8.28;;;8.28;;
50417;SDS011;36346;48.280;14.292;2022-10-26T16:11:33;8.11;;;8.11;;
50417;SDS011;36346;48.280;14.292;2022-10-26T16:14:01;7.79;;;7.79;;
50417;SDS011;36346;48.280;14.292;2022-10-26T16:16:30;8.52;;;8.52;;
50417;SDS011;36346;48.280;14.292;2022-10-26T16:18:58;8.08;;;8.07;;
50417;SDS011;36346;48.280;14.292;2022-10-26T16:21:49;8.71;;;8.69;;
50417;SDS011;36346;48.280;14.292;2022-10-26T16:24:18;9.23;;;9.21;;
50417;SDS011;36346;48.280;14.292;2022-10-26T16:26:46;9.14;;;9.13;;
50417;SDS011;36346;48.280;14.292;2022-10-26T16:29:14;8.59;;;8.57;;
50417;SDS011;36346;48.280;14.292;2022-10-26T16:31:42;9.88;;;9.88;;
50417;SDS011;36346;48.280;14.292;2022-10-26T16:34:10;10.18;;;10.18;;
50417;SDS011;36346;48.280;14.292;2022-10-26T16:36:38;9.95;;;9.95;;
50417;SDS011;36346;48.280;14.292;2022-10-26T16:39:06;9.34;;;9.34;;
50417;SDS011;36346;48.280;14.292;2022-10-26T16:41:35;9.40;;;9.40;;
50417;SDS011;36346;48.280;14.292;2022-10-26T16:44:03;9.59;;;9.59;;
50417;SDS011;36346;48.280;14.292;2022-10-26T16:46:32;9.33;;;9.32;;
50417;SDS011;36346;48.280;14.292;2022-10-26T16:49:00;9.79;;;9.78;;
50417;SDS011;36346;48.280;14.292;2022-10-26T16:51:28;10.09;;;10.09;;
50417;SDS011;36346;48.280;14.292;2022-10-26T16:53:56;9.59;;;9.59;;
50417;SDS011;36346;48.280;14.292;2022-10-26T16:56:25;10.13;;;10.13;;
50417;SDS011;36346;48.280;14.292;2022-10-26T16:58:54;10.64;;;10.63;;
50417;SDS011;36346;48.280;14.292;2022-10-26T17:01:23;12.27;;;12.27;;
50417;SDS011;36346;48.280;14.292;2022-10-26T17:03:52;12.62;;;12.62;;
50417;SDS011;36346;48.280;14.292;2022-10-26T17:06:21;13.23;;;13.22;;
50417;SDS011;36346;48.280;14.292;2022-10-26T17:08:49;13.67;;;13.67;;
50417;SDS011;36346;48.280;14.292;2022-10-26T17:11:18;13.34;;;13.34;;
50417;SDS011;36346;48.280;14.292;2022-10-26T17:13:51;15.11;;;15.11;;
50417;SDS011;36346;48.280;14.292;2022-10-26T17:16:21;15.75;;;15.74;;
50417;SDS011;36346;48.280;14.292;2022-10-26T17:18:50;15.69;;;15.69;;
50417;SDS011;36346;48.280;14.292;2022-10-26T17:21:26;16.38;;;16.38;;
50417;SDS011;36346;48.280;14.292;2022-10-26T17:23:56;19.36;;;19.32;;
50417;SDS011;36346;48.280;14.292;2022-10-26T17:26:24;18.39;;;18.37;;
50417;SDS011;36346;48.280;14.292;2022-10-26T17:28:53;17.01;;;16.95;;
50417;SDS011;36346;48.280;14.292;2022-10-26T17:31:23;17.09;;;17.08;;
50417;SDS011;36346;48.280;14.292;2022-10-26T17:33:52;16.84;;;16.80;;
50417;SDS011;36346;48.280;14.292;2022-10-26T17:36:21;17.57;;;17.56;;
50417;SDS011;36346;48.280;14.292;2022-10-26T17:38:52;19.17;;;19.15;;
50417;SDS011;36346;48.280;14.292;2022-10-26T17:41:22;19.48;;;19.44;;